Accueil
METAR-TAF:

METAR-TAF

Aéroports :

Tokachi-Obihiro, Japon

latitude: 42-54N, longitude: 143-10E, altitude: 84 m

Observation

Le bulletin a été fait il y a 11 heures et 22 minutes, à 06:49 UTC
Vent 1 kt de direction variable
Température 0°C
Humidité 93%
Pression 1016 hPa
Visibilité: 8000 m
Nuages épars à une hauteur de 800 ft
Nuages fragmentés à une hauteur de 900 ft
Nuages fragmentés à une hauteur de 2000 ft

METAR: RJCT 210649Z VRB01KT 8000 SCT008 BKN009 BKN020 00/M01 Q1016 RMK 4ST008 5ST009 7CU020 A3000

Heure: 03:11 (18:11 UTC)


TAF: absent

Observations et prévisions météorologiques de plus de 4000 aéroports (messages METAR et TAF).

Les stations disponibles sont représentées par des disques jaunes et rouges sur la carte.

Passer la souris dessus pour voir le nom de la station.

Cliquer dessus pour voir les observations et prévisions météorologiques.

Pour changer de carte: cliquez sur les boutons verts avec une croix noire pour zoomer, sur le bouton vert avec un tiret pour effectuer un zoom arrière, ou sur les flèches vertes pour les cartes adjacentes.


METAR-TAF: